Orange Grove, Texas
Current Conditions -  °F | °C
As of 1:56 PM on Thursday 27 Nov 2014 (Local Time) from KNOG Reporting Station
Clear Clear  
Wind Chill: 72°   Ceiling: Unl
Heat Index: 72°   Visibility: 10mi
Dew Point: 47°   Wind: 7mph
Humidity: 41%   Direction: 70°ENE
Pressure: 30.39"   Gusts: NA
Location:  27.96°N, 97.94°W
Report Text: KNOG 271956Z AUTO 07006KT 10SM CLR 22/08 A3039 RMK AO2 SLP272 T02220083 $
Loading
Personal Weather Stations






























Interactive Weather Map New forecast layout! Learn more

10-Day Weather Forecast

Advertisements
Track Severe Weather on mobile